sensor_id;sensor_type;location;lat;lon;timestamp;P1;durP1;ratioP1;P2;durP2;ratioP2
47053;SDS011;32811;52.382;5.270;2022-11-14T00:00:59;21.05;;;13.07;;
47053;SDS011;32811;52.382;5.270;2022-11-14T00:03:31;17.02;;;13.00;;
47053;SDS011;32811;52.382;5.270;2022-11-14T00:05:57;23.50;;;14.73;;
47053;SDS011;32811;52.382;5.270;2022-11-14T00:08:24;22.80;;;14.77;;
47053;SDS011;32811;52.382;5.270;2022-11-14T00:10:50;22.67;;;16.10;;
47053;SDS011;32811;52.382;5.270;2022-11-14T00:13:18;26.60;;;15.40;;
47053;SDS011;32811;52.382;5.270;2022-11-14T00:15:49;24.00;;;15.70;;
47053;SDS011;32811;52.382;5.270;2022-11-14T00:18:19;23.13;;;14.85;;
47053;SDS011;32811;52.382;5.270;2022-11-14T00:20:47;29.10;;;16.92;;
47053;SDS011;32811;52.382;5.270;2022-11-14T00:23:17;24.45;;;16.67;;
47053;SDS011;32811;52.382;5.270;2022-11-14T00:25:44;29.08;;;16.92;;
47053;SDS011;32811;52.382;5.270;2022-11-14T00:28:11;28.45;;;17.98;;
47053;SDS011;32811;52.382;5.270;2022-11-14T00:30:41;29.95;;;18.27;;
47053;SDS011;32811;52.382;5.270;2022-11-14T00:33:12;28.05;;;18.02;;
47053;SDS011;32811;52.382;5.270;2022-11-14T00:35:49;32.13;;;17.92;;
47053;SDS011;32811;52.382;5.270;2022-11-14T00:38:17;29.17;;;17.20;;
47053;SDS011;32811;52.382;5.270;2022-11-14T00:40:43;30.20;;;18.33;;
47053;SDS011;32811;52.382;5.270;2022-11-14T00:43:10;34.20;;;19.23;;
47053;SDS011;32811;52.382;5.270;2022-11-14T00:45:36;30.98;;;18.90;;
47053;SDS011;32811;52.382;5.270;2022-11-14T00:48:03;33.90;;;20.23;;
47053;SDS011;32811;52.382;5.270;2022-11-14T00:50:29;30.95;;;18.85;;
47053;SDS011;32811;52.382;5.270;2022-11-14T00:52:56;30.98;;;19.17;;
47053;SDS011;32811;52.382;5.270;2022-11-14T00:55:22;30.98;;;19.77;;
47053;SDS011;32811;52.382;5.270;2022-11-14T00:57:49;31.10;;;19.88;;
47053;SDS011;32811;52.382;5.270;2022-11-14T01:00:17;29.98;;;19.67;;
47053;SDS011;32811;52.382;5.270;2022-11-14T01:02:44;35.33;;;20.20;;
47053;SDS011;32811;52.382;5.270;2022-11-14T01:05:11;37.50;;;20.65;;
47053;SDS011;32811;52.382;5.270;2022-11-14T01:07:38;31.25;;;18.63;;
47053;SDS011;32811;52.382;5.270;2022-11-14T01:10:05;37.53;;;21.80;;
47053;SDS011;32811;52.382;5.270;2022-11-14T01:12:32;31.63;;;19.40;;
47053;SDS011;32811;52.382;5.270;2022-11-14T01:15:00;34.22;;;21.52;;
47053;SDS011;32811;52.382;5.270;2022-11-14T01:17:26;35.22;;;20.48;;
47053;SDS011;32811;52.382;5.270;2022-11-14T01:19:53;33.35;;;21.20;;
47053;SDS011;32811;52.382;5.270;2022-11-14T01:22:20;32.28;;;20.42;;
47053;SDS011;32811;52.382;5.270;2022-11-14T01:24:47;35.63;;;21.25;;
47053;SDS011;32811;52.382;5.270;2022-11-14T01:27:13;36.22;;;21.88;;
47053;SDS011;32811;52.382;5.270;2022-11-14T01:29:40;36.13;;;21.05;;
47053;SDS011;32811;52.382;5.270;2022-11-14T01:32:06;37.95;;;21.15;;
47053;SDS011;32811;52.382;5.270;2022-11-14T01:34:33;33.80;;;20.80;;
47053;SDS011;32811;52.382;5.270;2022-11-14T01:37:00;34.67;;;21.25;;
47053;SDS011;32811;52.382;5.270;2022-11-14T01:39:27;37.50;;;22.20;;
47053;SDS011;32811;52.382;5.270;2022-11-14T01:41:53;42.55;;;23.35;;
47053;SDS011;32811;52.382;5.270;2022-11-14T01:47:25;38.30;;;21.55;;
47053;SDS011;32811;52.382;5.270;2022-11-14T01:49:55;38.97;;;22.20;;
47053;SDS011;32811;52.382;5.270;2022-11-14T01:52:28;42.33;;;23.05;;
47053;SDS011;32811;52.382;5.270;2022-11-14T01:55:00;36.85;;;22.65;;
47053;SDS011;32811;52.382;5.270;2022-11-14T01:57:35;40.28;;;23.83;;
47053;SDS011;32811;52.382;5.270;2022-11-14T02:00:07;33.28;;;21.35;;
47053;SDS011;32811;52.382;5.270;2022-11-14T02:02:36;43.45;;;23.58;;
47053;SDS011;32811;52.382;5.270;2022-11-14T02:05:08;44.28;;;22.67;;
47053;SDS011;32811;52.382;5.270;2022-11-14T02:07:38;36.13;;;21.85;;
47053;SDS011;32811;52.382;5.270;2022-11-14T02:10:16;38.78;;;22.55;;
47053;SDS011;32811;52.382;5.270;2022-11-14T02:12:45;39.85;;;23.45;;
47053;SDS011;32811;52.382;5.270;2022-11-14T02:15:12;41.25;;;23.10;;
47053;SDS011;32811;52.382;5.270;2022-11-14T02:17:39;39.75;;;23.08;;
47053;SDS011;32811;52.382;5.270;2022-11-14T02:22:38;41.17;;;23.83;;
47053;SDS011;32811;52.382;5.270;2022-11-14T02:25:06;39.00;;;22.40;;
47053;SDS011;32811;52.382;5.270;2022-11-14T02:27:34;44.38;;;23.80;;
47053;SDS011;32811;52.382;5.270;2022-11-14T02:30:06;38.83;;;22.85;;
47053;SDS011;32811;52.382;5.270;2022-11-14T02:32:36;39.78;;;22.65;;
47053;SDS011;32811;52.382;5.270;2022-11-14T02:35:23;49.17;;;23.10;;
47053;SDS011;32811;52.382;5.270;2022-11-14T02:37:49;43.03;;;22.50;;
47053;SDS011;32811;52.382;5.270;2022-11-14T02:40:17;41.42;;;24.08;;
47053;SDS011;32811;52.382;5.270;2022-11-14T02:42:44;39.75;;;22.40;;
47053;SDS011;32811;52.382;5.270;2022-11-14T02:45:11;45.25;;;24.13;;
47053;SDS011;32811;52.382;5.270;2022-11-14T02:47:38;41.00;;;23.42;;
47053;SDS011;32811;52.382;5.270;2022-11-14T02:50:05;39.25;;;23.42;;
47053;SDS011;32811;52.382;5.270;2022-11-14T02:52:31;40.65;;;22.77;;
47053;SDS011;32811;52.382;5.270;2022-11-14T02:54:58;46.25;;;23.58;;
47053;SDS011;32811;52.382;5.270;2022-11-14T02:57:25;44.00;;;23.80;;
47053;SDS011;32811;52.382;5.270;2022-11-14T02:59:51;39.72;;;22.98;;
47053;SDS011;32811;52.382;5.270;2022-11-14T03:02:18;47.15;;;23.40;;
47053;SDS011;32811;52.382;5.270;2022-11-14T03:04:46;38.92;;;23.02;;
47053;SDS011;32811;52.382;5.270;2022-11-14T03:07:13;43.75;;;23.73;;
47053;SDS011;32811;52.382;5.270;2022-11-14T03:09:40;44.35;;;23.88;;
47053;SDS011;32811;52.382;5.270;2022-11-14T03:12:07;41.15;;;23.90;;
47053;SDS011;32811;52.382;5.270;2022-11-14T03:14:34;45.10;;;25.70;;
47053;SDS011;32811;52.382;5.270;2022-11-14T03:17:00;39.70;;;23.05;;
47053;SDS011;32811;52.382;5.270;2022-11-14T03:19:27;45.58;;;24.45;;
47053;SDS011;32811;52.382;5.270;2022-11-14T03:21:54;50.55;;;24.92;;
47053;SDS011;32811;52.382;5.270;2022-11-14T03:24:20;45.05;;;23.83;;
47053;SDS011;32811;52.382;5.270;2022-11-14T03:26:47;44.78;;;24.55;;
47053;SDS011;32811;52.382;5.270;2022-11-14T03:29:14;42.05;;;23.80;;
47053;SDS011;32811;52.382;5.270;2022-11-14T03:31:40;42.78;;;23.30;;
47053;SDS011;32811;52.382;5.270;2022-11-14T03:34:08;47.03;;;23.23;;
47053;SDS011;32811;52.382;5.270;2022-11-14T03:36:35;43.13;;;23.17;;
47053;SDS011;32811;52.382;5.270;2022-11-14T03:39:03;50.83;;;24.52;;
47053;SDS011;32811;52.382;5.270;2022-11-14T03:41:31;43.05;;;23.83;;
47053;SDS011;32811;52.382;5.270;2022-11-14T03:43:58;44.85;;;23.75;;
47053;SDS011;32811;52.382;5.270;2022-11-14T03:46:25;43.90;;;22.67;;
47053;SDS011;32811;52.382;5.270;2022-11-14T03:48:52;46.15;;;24.13;;
47053;SDS011;32811;52.382;5.270;2022-11-14T03:51:21;44.25;;;23.20;;
47053;SDS011;32811;52.382;5.270;2022-11-14T03:53:48;44.35;;;23.75;;
47053;SDS011;32811;52.382;5.270;2022-11-14T03:56:15;43.88;;;23.38;;
47053;SDS011;32811;52.382;5.270;2022-11-14T03:58:42;47.85;;;24.33;;
47053;SDS011;32811;52.382;5.270;2022-11-14T04:01:08;43.22;;;22.92;;
47053;SDS011;32811;52.382;5.270;2022-11-14T04:03:35;47.13;;;24.65;;
47053;SDS011;32811;52.382;5.270;2022-11-14T04:06:02;46.92;;;24.88;;
47053;SDS011;32811;52.382;5.270;2022-11-14T04:08:29;46.58;;;23.05;;
47053;SDS011;32811;52.382;5.270;2022-11-14T04:10:58;42.83;;;22.13;;
47053;SDS011;32811;52.382;5.270;2022-11-14T04:13:25;50.03;;;23.98;;
47053;SDS011;32811;52.382;5.270;2022-11-14T04:15:57;44.95;;;24.38;;
47053;SDS011;32811;52.382;5.270;2022-11-14T04:18:24;45.83;;;22.38;;
47053;SDS011;32811;52.382;5.270;2022-11-14T04:20:52;44.45;;;24.15;;
47053;SDS011;32811;52.382;5.270;2022-11-14T04:23:19;39.97;;;21.73;;
47053;SDS011;32811;52.382;5.270;2022-11-14T04:25:46;43.13;;;22.58;;
47053;SDS011;32811;52.382;5.270;2022-11-14T04:28:13;39.22;;;20.92;;
47053;SDS011;32811;52.382;5.270;2022-11-14T04:30:39;44.58;;;23.85;;
47053;SDS011;32811;52.382;5.270;2022-11-14T04:33:06;45.50;;;23.38;;
47053;SDS011;32811;52.382;5.270;2022-11-14T04:35:33;46.22;;;21.88;;
47053;SDS011;32811;52.382;5.270;2022-11-14T04:38:00;40.90;;;21.17;;
47053;SDS011;32811;52.382;5.270;2022-11-14T04:40:27;43.05;;;21.58;;
47053;SDS011;32811;52.382;5.270;2022-11-14T04:42:54;42.88;;;22.77;;
47053;SDS011;32811;52.382;5.270;2022-11-14T04:45:21;49.28;;;25.35;;
47053;SDS011;32811;52.382;5.270;2022-11-14T04:47:49;43.53;;;23.38;;
47053;SDS011;32811;52.382;5.270;2022-11-14T04:50:15;48.90;;;23.60;;
47053;SDS011;32811;52.382;5.270;2022-11-14T04:52:42;43.33;;;23.05;;
47053;SDS011;32811;52.382;5.270;2022-11-14T04:55:09;43.25;;;22.83;;
47053;SDS011;32811;52.382;5.270;2022-11-14T04:57:37;44.50;;;22.45;;
47053;SDS011;32811;52.382;5.270;2022-11-14T05:00:03;42.67;;;21.52;;
47053;SDS011;32811;52.382;5.270;2022-11-14T05:02:30;49.50;;;23.95;;
47053;SDS011;32811;52.382;5.270;2022-11-14T05:04:58;39.30;;;20.88;;
47053;SDS011;32811;52.382;5.270;2022-11-14T05:07:24;42.22;;;21.52;;
47053;SDS011;32811;52.382;5.270;2022-11-14T05:09:51;40.30;;;22.00;;
47053;SDS011;32811;52.382;5.270;2022-11-14T05:12:18;40.67;;;21.95;;
47053;SDS011;32811;52.382;5.270;2022-11-14T05:14:44;39.08;;;21.15;;
47053;SDS011;32811;52.382;5.270;2022-11-14T05:17:11;38.80;;;21.77;;
47053;SDS011;32811;52.382;5.270;2022-11-14T05:19:38;44.58;;;22.70;;
47053;SDS011;32811;52.382;5.270;2022-11-14T05:22:05;39.78;;;20.33;;
47053;SDS011;32811;52.382;5.270;2022-11-14T05:24:32;44.65;;;21.65;;
47053;SDS011;32811;52.382;5.270;2022-11-14T05:26:59;41.67;;;21.92;;
47053;SDS011;32811;52.382;5.270;2022-11-14T05:29:25;42.25;;;21.98;;
47053;SDS011;32811;52.382;5.270;2022-11-14T05:31:52;40.20;;;20.60;;
47053;SDS011;32811;52.382;5.270;2022-11-14T05:34:19;38.85;;;20.33;;
47053;SDS011;32811;52.382;5.270;2022-11-14T05:36:46;40.70;;;20.52;;
47053;SDS011;32811;52.382;5.270;2022-11-14T05:39:13;43.20;;;21.40;;
47053;SDS011;32811;52.382;5.270;2022-11-14T05:41:39;40.85;;;21.60;;
47053;SDS011;32811;52.382;5.270;2022-11-14T05:44:06;39.90;;;20.52;;
47053;SDS011;32811;52.382;5.270;2022-11-14T05:46:33;37.90;;;20.52;;
47053;SDS011;32811;52.382;5.270;2022-11-14T05:49:00;42.28;;;21.85;;
47053;SDS011;32811;52.382;5.270;2022-11-14T05:51:26;38.00;;;19.88;;
47053;SDS011;32811;52.382;5.270;2022-11-14T05:53:53;42.80;;;20.95;;
47053;SDS011;32811;52.382;5.270;2022-11-14T05:56:20;36.20;;;20.17;;
47053;SDS011;32811;52.382;5.270;2022-11-14T05:58:47;37.55;;;20.05;;
47053;SDS011;32811;52.382;5.270;2022-11-14T06:01:14;43.67;;;22.00;;
47053;SDS011;32811;52.382;5.270;2022-11-14T06:03:44;40.65;;;21.40;;
47053;SDS011;32811;52.382;5.270;2022-11-14T06:06:14;37.35;;;20.15;;
47053;SDS011;32811;52.382;5.270;2022-11-14T06:08:42;39.17;;;20.13;;
47053;SDS011;32811;52.382;5.270;2022-11-14T06:11:11;35.15;;;19.75;;
47053;SDS011;32811;52.382;5.270;2022-11-14T06:13:43;44.97;;;22.42;;
47053;SDS011;32811;52.382;5.270;2022-11-14T06:16:12;35.30;;;19.70;;
47053;SDS011;32811;52.382;5.270;2022-11-14T06:18:40;37.20;;;19.38;;
47053;SDS011;32811;52.382;5.270;2022-11-14T06:21:11;37.88;;;19.73;;
47053;SDS011;32811;52.382;5.270;2022-11-14T06:23:40;34.35;;;20.27;;
47053;SDS011;32811;52.382;5.270;2022-11-14T06:26:18;39.55;;;19.77;;
47053;SDS011;32811;52.382;5.270;2022-11-14T06:28:48;38.13;;;19.80;;
47053;SDS011;32811;52.382;5.270;2022-11-14T06:31:15;44.28;;;21.08;;
47053;SDS011;32811;52.382;5.270;2022-11-14T06:33:43;33.67;;;19.40;;
47053;SDS011;32811;52.382;5.270;2022-11-14T06:36:10;34.95;;;19.77;;
47053;SDS011;32811;52.382;5.270;2022-11-14T06:38:38;42.67;;;21.13;;
47053;SDS011;32811;52.382;5.270;2022-11-14T06:41:10;34.40;;;19.83;;
47053;SDS011;32811;52.382;5.270;2022-11-14T06:46:09;38.67;;;19.90;;
47053;SDS011;32811;52.382;5.270;2022-11-14T06:48:37;39.17;;;20.00;;
47053;SDS011;32811;52.382;5.270;2022-11-14T06:51:04;32.92;;;18.25;;
47053;SDS011;32811;52.382;5.270;2022-11-14T06:53:32;37.20;;;20.23;;
47053;SDS011;32811;52.382;5.270;2022-11-14T06:56:00;39.22;;;21.00;;
47053;SDS011;32811;52.382;5.270;2022-11-14T06:58:36;40.17;;;21.05;;
47053;SDS011;32811;52.382;5.270;2022-11-14T07:01:15;37.53;;;19.58;;
47053;SDS011;32811;52.382;5.270;2022-11-14T07:03:46;38.35;;;19.60;;
47053;SDS011;32811;52.382;5.270;2022-11-14T07:06:15;42.72;;;20.80;;
47053;SDS011;32811;52.382;5.270;2022-11-14T07:08:43;36.33;;;20.13;;
47053;SDS011;32811;52.382;5.270;2022-11-14T07:11:11;36.00;;;19.55;;
47053;SDS011;32811;52.382;5.270;2022-11-14T07:13:48;39.58;;;18.55;;
47053;SDS011;32811;52.382;5.270;2022-11-14T07:16:16;37.90;;;21.42;;
47053;SDS011;32811;52.382;5.270;2022-11-14T07:18:43;38.38;;;20.23;;
47053;SDS011;32811;52.382;5.270;2022-11-14T07:21:10;37.70;;;21.08;;
47053;SDS011;32811;52.382;5.270;2022-11-14T07:23:38;37.88;;;18.35;;
47053;SDS011;32811;52.382;5.270;2022-11-14T07:26:07;43.05;;;19.70;;
47053;SDS011;32811;52.382;5.270;2022-11-14T07:28:36;35.70;;;17.70;;
47053;SDS011;32811;52.382;5.270;2022-11-14T07:31:08;39.88;;;21.65;;
47053;SDS011;32811;52.382;5.270;2022-11-14T07:33:37;37.40;;;19.23;;
47053;SDS011;32811;52.382;5.270;2022-11-14T07:36:05;38.10;;;20.33;;
47053;SDS011;32811;52.382;5.270;2022-11-14T07:38:32;34.83;;;19.77;;
47053;SDS011;32811;52.382;5.270;2022-11-14T07:41:07;36.55;;;19.13;;
47053;SDS011;32811;52.382;5.270;2022-11-14T07:43:36;36.90;;;20.13;;
47053;SDS011;32811;52.382;5.270;2022-11-14T07:46:04;39.00;;;19.50;;
47053;SDS011;32811;52.382;5.270;2022-11-14T07:48:32;35.42;;;19.30;;
47053;SDS011;32811;52.382;5.270;2022-11-14T07:51:00;35.45;;;19.20;;
47053;SDS011;32811;52.382;5.270;2022-11-14T07:53:28;32.53;;;18.08;;
47053;SDS011;32811;52.382;5.270;2022-11-14T07:55:56;34.65;;;18.58;;
47053;SDS011;32811;52.382;5.270;2022-11-14T07:58:27;38.70;;;19.15;;
47053;SDS011;32811;52.382;5.270;2022-11-14T08:00:54;30.90;;;18.05;;
47053;SDS011;32811;52.382;5.270;2022-11-14T08:03:21;38.40;;;19.42;;
47053;SDS011;32811;52.382;5.270;2022-11-14T08:05:48;33.88;;;18.60;;
47053;SDS011;32811;52.382;5.270;2022-11-14T08:08:15;32.00;;;18.25;;
47053;SDS011;32811;52.382;5.270;2022-11-14T08:10:41;32.55;;;17.83;;
47053;SDS011;32811;52.382;5.270;2022-11-14T08:13:09;38.60;;;19.77;;
47053;SDS011;32811;52.382;5.270;2022-11-14T08:15:55;32.85;;;18.10;;
47053;SDS011;32811;52.382;5.270;2022-11-14T08:18:23;34.47;;;19.45;;
47053;SDS011;32811;52.382;5.270;2022-11-14T08:20:49;32.97;;;16.92;;
47053;SDS011;32811;52.382;5.270;2022-11-14T08:23:16;35.50;;;18.10;;
47053;SDS011;32811;52.382;5.270;2022-11-14T08:25:43;31.73;;;17.83;;
47053;SDS011;32811;52.382;5.270;2022-11-14T08:28:10;32.67;;;17.42;;
47053;SDS011;32811;52.382;5.270;2022-11-14T08:30:36;31.60;;;18.55;;
47053;SDS011;32811;52.382;5.270;2022-11-14T08:33:03;31.30;;;17.35;;
47053;SDS011;32811;52.382;5.270;2022-11-14T08:35:32;30.67;;;16.27;;
47053;SDS011;32811;52.382;5.270;2022-11-14T08:38:00;31.17;;;17.83;;
47053;SDS011;32811;52.382;5.270;2022-11-14T08:40:28;31.85;;;18.33;;
47053;SDS011;32811;52.382;5.270;2022-11-14T08:42:59;31.23;;;17.83;;
47053;SDS011;32811;52.382;5.270;2022-11-14T08:45:27;33.88;;;18.05;;
47053;SDS011;32811;52.382;5.270;2022-11-14T08:47:55;31.05;;;17.08;;
47053;SDS011;32811;52.382;5.270;2022-11-14T08:50:22;32.22;;;18.58;;
47053;SDS011;32811;52.382;5.270;2022-11-14T08:52:50;34.00;;;18.70;;
47053;SDS011;32811;52.382;5.270;2022-11-14T08:55:17;34.80;;;17.55;;
47053;SDS011;32811;52.382;5.270;2022-11-14T08:57:45;32.03;;;17.92;;
47053;SDS011;32811;52.382;5.270;2022-11-14T09:00:15;38.65;;;17.88;;
47053;SDS011;32811;52.382;5.270;2022-11-14T09:02:42;33.08;;;17.45;;
47053;SDS011;32811;52.382;5.270;2022-11-14T09:05:09;30.50;;;17.42;;
47053;SDS011;32811;52.382;5.270;2022-11-14T09:07:37;26.92;;;15.43;;
47053;SDS011;32811;52.382;5.270;2022-11-14T09:10:04;29.60;;;16.60;;
47053;SDS011;32811;52.382;5.270;2022-11-14T09:12:31;33.33;;;18.90;;
47053;SDS011;32811;52.382;5.270;2022-11-14T09:14:58;31.15;;;16.90;;
47053;SDS011;32811;52.382;5.270;2022-11-14T09:17:25;30.08;;;16.75;;
47053;SDS011;32811;52.382;5.270;2022-11-14T09:19:52;26.52;;;16.17;;
47053;SDS011;32811;52.382;5.270;2022-11-14T09:22:19;29.00;;;17.42;;
47053;SDS011;32811;52.382;5.270;2022-11-14T09:24:46;29.13;;;17.25;;
47053;SDS011;32811;52.382;5.270;2022-11-14T09:27:12;27.08;;;14.98;;
47053;SDS011;32811;52.382;5.270;2022-11-14T09:29:39;29.20;;;16.90;;
47053;SDS011;32811;52.382;5.270;2022-11-14T09:32:06;29.83;;;16.75;;
47053;SDS011;32811;52.382;5.270;2022-11-14T09:34:33;30.55;;;16.90;;
47053;SDS011;32811;52.382;5.270;2022-11-14T09:36:59;29.20;;;16.48;;
47053;SDS011;32811;52.382;5.270;2022-11-14T09:39:26;32.05;;;16.90;;
47053;SDS011;32811;52.382;5.270;2022-11-14T09:44:53;27.15;;;16.42;;
47053;SDS011;32811;52.382;5.270;2022-11-14T09:47:43;28.73;;;17.67;;
47053;SDS011;32811;52.382;5.270;2022-11-14T09:50:29;30.85;;;17.58;;
47053;SDS011;32811;52.382;5.270;2022-11-14T09:53:03;27.38;;;16.30;;
47053;SDS011;32811;52.382;5.270;2022-11-14T09:55:34;28.15;;;15.90;;
47053;SDS011;32811;52.382;5.270;2022-11-14T09:58:03;25.73;;;15.93;;
47053;SDS011;32811;52.382;5.270;2022-11-14T10:00:37;28.48;;;15.82;;
47053;SDS011;32811;52.382;5.270;2022-11-14T10:11:58;18.17;;;10.77;;
47053;SDS011;32811;52.382;5.270;2022-11-14T10:38:53;22.00;;;13.98;;
47053;SDS011;32811;52.382;5.270;2022-11-14T10:41:42;26.42;;;15.68;;
47053;SDS011;32811;52.382;5.270;2022-11-14T10:44:33;24.58;;;14.00;;
47053;SDS011;32811;52.382;5.270;2022-11-14T10:47:07;21.42;;;14.02;;
47053;SDS011;32811;52.382;5.270;2022-11-14T10:49:38;23.00;;;14.38;;
47053;SDS011;32811;52.382;5.270;2022-11-14T10:52:09;24.90;;;14.15;;
47053;SDS011;32811;52.382;5.270;2022-11-14T10:54:41;15.68;;;10.88;;
47053;SDS011;32811;52.382;5.270;2022-11-14T10:57:15;17.88;;;10.90;;
47053;SDS011;32811;52.382;5.270;2022-11-14T10:59:45;17.83;;;11.77;;
47053;SDS011;32811;52.382;5.270;2022-11-14T11:02:12;20.38;;;11.20;;
47053;SDS011;32811;52.382;5.270;2022-11-14T11:04:40;18.17;;;10.23;;
47053;SDS011;32811;52.382;5.270;2022-11-14T11:09:38;14.32;;;10.32;;
47053;SDS011;32811;52.382;5.270;2022-11-14T11:12:38;13.70;;;10.60;;
47053;SDS011;32811;52.382;5.270;2022-11-14T11:15:13;17.65;;;9.65;;
47053;SDS011;32811;52.382;5.270;2022-11-14T11:25:37;15.68;;;9.70;;
47053;SDS011;32811;52.382;5.270;2022-11-14T11:30:59;18.25;;;10.00;;
47053;SDS011;32811;52.382;5.270;2022-11-14T11:33:29;16.92;;;10.77;;
47053;SDS011;32811;52.382;5.270;2022-11-14T11:36:04;15.95;;;9.98;;
47053;SDS011;32811;52.382;5.270;2022-11-14T11:38:37;14.77;;;9.98;;
47053;SDS011;32811;52.382;5.270;2022-11-14T11:44:03;14.15;;;10.18;;
47053;SDS011;32811;52.382;5.270;2022-11-14T11:51:44;15.38;;;11.38;;
47053;SDS011;32811;52.382;5.270;2022-11-14T11:54:13;14.13;;;10.82;;
47053;SDS011;32811;52.382;5.270;2022-11-14T11:56:43;14.77;;;9.93;;
47053;SDS011;32811;52.382;5.270;2022-11-14T12:01:44;14.27;;;9.95;;
47053;SDS011;32811;52.382;5.270;2022-11-14T12:04:11;16.05;;;10.60;;
47053;SDS011;32811;52.382;5.270;2022-11-14T12:06:40;14.55;;;10.10;;
47053;SDS011;32811;52.382;5.270;2022-11-14T12:09:14;13.77;;;10.00;;
47053;SDS011;32811;52.382;5.270;2022-11-14T12:11:52;13.50;;;10.18;;
47053;SDS011;32811;52.382;5.270;2022-11-14T12:14:44;15.07;;;10.13;;
47053;SDS011;32811;52.382;5.270;2022-11-14T12:17:41;12.30;;;9.55;;
47053;SDS011;32811;52.382;5.270;2022-11-14T12:28:40;18.40;;;10.73;;
47053;SDS011;32811;52.382;5.270;2022-11-14T12:31:27;15.75;;;9.88;;
47053;SDS011;32811;52.382;5.270;2022-11-14T12:36:47;16.48;;;11.43;;
47053;SDS011;32811;52.382;5.270;2022-11-14T12:39:24;21.73;;;10.60;;
47053;SDS011;32811;52.382;5.270;2022-11-14T12:42:05;17.77;;;10.25;;
47053;SDS011;32811;52.382;5.270;2022-11-14T12:44:36;15.00;;;11.05;;
47053;SDS011;32811;52.382;5.270;2022-11-14T12:49:55;13.90;;;10.60;;
47053;SDS011;32811;52.382;5.270;2022-11-14T13:00:37;16.25;;;12.35;;
47053;SDS011;32811;52.382;5.270;2022-11-14T13:03:19;21.38;;;12.52;;
47053;SDS011;32811;52.382;5.270;2022-11-14T13:11:50;14.75;;;11.68;;
47053;SDS011;32811;52.382;5.270;2022-11-14T13:14:50;18.67;;;11.50;;
47053;SDS011;32811;52.382;5.270;2022-11-14T13:17:37;17.98;;;12.98;;
47053;SDS011;32811;52.382;5.270;2022-11-14T13:20:27;20.85;;;13.73;;
47053;SDS011;32811;52.382;5.270;2022-11-14T13:28:49;19.25;;;13.43;;
47053;SDS011;32811;52.382;5.270;2022-11-14T13:31:18;20.40;;;13.95;;
47053;SDS011;32811;52.382;5.270;2022-11-14T13:33:49;23.02;;;15.40;;
47053;SDS011;32811;52.382;5.270;2022-11-14T13:36:24;22.30;;;15.05;;
47053;SDS011;32811;52.382;5.270;2022-11-14T13:39:09;25.45;;;16.10;;
47053;SDS011;32811;52.382;5.270;2022-11-14T13:50:14;23.85;;;17.02;;
47053;SDS011;32811;52.382;5.270;2022-11-14T13:52:44;21.95;;;15.77;;
47053;SDS011;32811;52.382;5.270;2022-11-14T13:55:18;19.95;;;14.52;;
47053;SDS011;32811;52.382;5.270;2022-11-14T14:00:54;25.15;;;15.73;;
47053;SDS011;32811;52.382;5.270;2022-11-14T14:03:34;24.88;;;16.23;;
47053;SDS011;32811;52.382;5.270;2022-11-14T14:06:17;24.08;;;16.38;;
47053;SDS011;32811;52.382;5.270;2022-11-14T14:08:55;21.38;;;15.20;;
47053;SDS011;32811;52.382;5.270;2022-11-14T14:14:23;23.02;;;16.70;;
47053;SDS011;32811;52.382;5.270;2022-11-14T14:17:22;24.15;;;15.52;;
47053;SDS011;32811;52.382;5.270;2022-11-14T14:20:12;25.23;;;16.08;;
47053;SDS011;32811;52.382;5.270;2022-11-14T14:31:37;25.27;;;15.90;;
47053;SDS011;32811;52.382;5.270;2022-11-14T14:34:19;24.92;;;15.82;;
47053;SDS011;32811;52.382;5.270;2022-11-14T14:36:51;27.83;;;16.85;;
47053;SDS011;32811;52.382;5.270;2022-11-14T14:39:21;24.48;;;15.85;;
47053;SDS011;32811;52.382;5.270;2022-11-14T14:41:51;27.95;;;16.13;;
47053;SDS011;32811;52.382;5.270;2022-11-14T14:44:29;23.98;;;16.05;;
47053;SDS011;32811;52.382;5.270;2022-11-14T14:47:26;32.22;;;18.80;;
47053;SDS011;32811;52.382;5.270;2022-11-14T14:49:59;27.30;;;16.27;;
47053;SDS011;32811;52.382;5.270;2022-11-14T14:52:35;24.48;;;17.50;;
47053;SDS011;32811;52.382;5.270;2022-11-14T14:55:03;25.55;;;15.85;;
47053;SDS011;32811;52.382;5.270;2022-11-14T14:57:31;27.63;;;16.35;;
47053;SDS011;32811;52.382;5.270;2022-11-14T14:59:59;31.67;;;17.85;;
47053;SDS011;32811;52.382;5.270;2022-11-14T15:02:26;27.30;;;17.00;;
47053;SDS011;32811;52.382;5.270;2022-11-14T15:04:54;27.98;;;16.48;;
47053;SDS011;32811;52.382;5.270;2022-11-14T15:07:25;26.83;;;15.57;;
47053;SDS011;32811;52.382;5.270;2022-11-14T15:09:55;27.08;;;16.55;;
47053;SDS011;32811;52.382;5.270;2022-11-14T15:12:24;26.83;;;16.60;;
47053;SDS011;32811;52.382;5.270;2022-11-14T15:14:54;26.70;;;16.30;;
47053;SDS011;32811;52.382;5.270;2022-11-14T15:17:21;29.60;;;16.75;;
47053;SDS011;32811;52.382;5.270;2022-11-14T15:19:50;26.55;;;16.70;;
47053;SDS011;32811;52.382;5.270;2022-11-14T15:27:31;27.63;;;17.55;;
47053;SDS011;32811;52.382;5.270;2022-11-14T15:30:02;24.40;;;15.07;;
47053;SDS011;32811;52.382;5.270;2022-11-14T15:32:31;25.38;;;16.10;;
47053;SDS011;32811;52.382;5.270;2022-11-14T15:38:02;23.45;;;14.70;;
47053;SDS011;32811;52.382;5.270;2022-11-14T15:51:53;27.40;;;15.75;;
47053;SDS011;32811;52.382;5.270;2022-11-14T15:54:22;26.58;;;15.77;;
47053;SDS011;32811;52.382;5.270;2022-11-14T15:56:54;26.52;;;15.23;;
47053;SDS011;32811;52.382;5.270;2022-11-14T15:59:22;27.40;;;15.65;;
47053;SDS011;32811;52.382;5.270;2022-11-14T16:01:55;24.55;;;15.13;;
47053;SDS011;32811;52.382;5.270;2022-11-14T16:04:28;25.63;;;14.98;;
47053;SDS011;32811;52.382;5.270;2022-11-14T16:06:58;29.02;;;16.85;;
47053;SDS011;32811;52.382;5.270;2022-11-14T16:09:24;31.75;;;15.57;;
47053;SDS011;32811;52.382;5.270;2022-11-14T16:11:52;24.77;;;15.68;;
47053;SDS011;32811;52.382;5.270;2022-11-14T16:14:18;22.83;;;15.38;;
47053;SDS011;32811;52.382;5.270;2022-11-14T16:16:45;24.45;;;15.93;;
47053;SDS011;32811;52.382;5.270;2022-11-14T16:19:12;24.73;;;16.33;;
47053;SDS011;32811;52.382;5.270;2022-11-14T16:21:40;27.92;;;18.80;;
47053;SDS011;32811;52.382;5.270;2022-11-14T16:24:10;26.15;;;16.48;;
47053;SDS011;32811;52.382;5.270;2022-11-14T16:26:40;27.55;;;17.13;;
47053;SDS011;32811;52.382;5.270;2022-11-14T16:29:07;26.33;;;15.90;;
47053;SDS011;32811;52.382;5.270;2022-11-14T16:31:35;26.35;;;16.88;;
47053;SDS011;32811;52.382;5.270;2022-11-14T16:34:01;32.28;;;18.63;;
47053;SDS011;32811;52.382;5.270;2022-11-14T16:36:28;30.77;;;17.48;;
47053;SDS011;32811;52.382;5.270;2022-11-14T16:38:57;27.45;;;17.00;;
47053;SDS011;32811;52.382;5.270;2022-11-14T16:41:26;24.90;;;15.63;;
47053;SDS011;32811;52.382;5.270;2022-11-14T16:43:54;28.73;;;16.65;;
47053;SDS011;32811;52.382;5.270;2022-11-14T16:46:22;28.33;;;18.10;;
47053;SDS011;32811;52.382;5.270;2022-11-14T16:48:49;33.05;;;17.77;;
47053;SDS011;32811;52.382;5.270;2022-11-14T16:51:16;26.27;;;17.65;;
47053;SDS011;32811;52.382;5.270;2022-11-14T16:54:04;33.25;;;19.77;;
47053;SDS011;32811;52.382;5.270;2022-11-14T16:56:30;32.35;;;19.00;;
47053;SDS011;32811;52.382;5.270;2022-11-14T16:58:58;31.33;;;18.80;;
47053;SDS011;32811;52.382;5.270;2022-11-14T17:01:25;36.88;;;19.05;;